Time;durP1;ratioP1;P1;durP2;ratioP2;P2;SDS_P1;SDS_P2;PMS_P1;PMS_P2;Temp;Humidity;BMP_temperature;BMP_pressure;BME280_temperature;BME280_humidity;BME280_pressure;Samples;Min_cycle;Max_cycle;Signal;HPM_P1;HPM_P2
2022/06/02 00:02:32;;;;;;;1.48;0.60;;;;;;;14.60;58.95;99106.19;5110557;28;20048;-85
2022/06/02 00:05:07;;;;;;;3.67;0.82;;;;;;;14.64;59.47;99121.16;5090582;28;20050;-84
2022/06/02 00:07:46;;;;;;;1.23;0.65;;;;;;;14.48;59.52;99098.63;5094570;28;20044;-84
2022/06/02 00:10:23;;;;;;;2.43;0.87;;;;;;;14.64;59.97;99129.38;5107510;28;20051;-84
2022/06/02 00:12:59;;;;;;;1.67;0.80;;;;;;;14.44;64.23;99113.78;5108162;28;20384;-84
2022/06/02 00:15:28;;;;;;;0.60;0.60;;;;;;;14.52;65.00;99140.91;5112016;28;20375;-84
2022/06/02 00:18:03;;;;;;;1.20;0.65;;;;;;;14.41;64.63;99132.50;5105198;28;20051;-83
2022/06/02 00:20:35;;;;;;;3.15;1.00;;;;;;;14.33;64.84;99139.88;5104574;28;20052;-84
2022/06/02 00:23:22;;;;;;;0.90;0.75;;;;;;;14.40;69.24;99130.81;5102133;28;20044;-84
2022/06/02 00:26:03;;;;;;;0.93;0.82;;;;;;;14.30;70.73;99131.22;5092294;28;20048;-84
2022/06/02 00:28:35;;;;;;;3.70;0.70;;;;;;;14.17;71.67;99134.81;5102371;28;20063;-84
2022/06/02 00:31:08;;;;;;;0.68;0.68;;;;;;;14.10;72.81;99137.53;5103935;28;20058;-84
2022/06/02 00:33:50;;;;;;;2.03;1.00;;;;;;;13.95;73.27;99128.69;5102601;28;20043;-84
2022/06/02 00:36:24;;;;;;;2.78;0.70;;;;;;;13.85;73.22;99126.38;5111575;27;20109;-84
2022/06/02 00:38:53;;;;;;;0.75;0.70;;;;;;;13.83;72.73;99120.25;5111810;28;20118;-85
2022/06/02 00:41:24;;;;;;;3.60;0.82;;;;;;;13.95;72.77;99134.13;5095989;28;20120;-85
2022/06/02 00:44:10;;;;;;;2.58;0.93;;;;;;;14.09;66.95;99144.06;5118294;28;20053;-84
2022/06/02 00:46:51;;;;;;;0.93;0.75;;;;;;;14.10;71.04;99133.94;5121140;28;20050;-84
2022/06/02 00:49:26;;;;;;;1.55;0.80;;;;;;;14.04;72.85;99143.81;5108235;28;20044;-84
2022/06/02 00:52:15;;;;;;;3.03;1.02;;;;;;;13.73;74.17;99138.91;5101881;28;20467;-84
2022/06/02 00:57:51;;;;;;;2.63;0.98;;;;;;;13.53;67.28;99139.69;5066083;28;20140;-83
2022/06/02 01:00:20;;;;;;;2.50;0.95;;;;;;;13.65;67.51;99136.38;5107786;28;20053;-84
2022/06/02 01:02:52;;;;;;;1.00;0.80;;;;;;;13.67;66.81;99156.13;5107439;28;20043;-84
2022/06/02 01:05:30;;;;;;;1.90;0.90;;;;;;;13.72;68.56;99145.44;5102938;28;20143;-83
2022/06/02 01:08:04;;;;;;;1.45;1.35;;;;;;;13.44;66.78;99122.69;5103957;28;20055;-84
2022/06/02 01:10:52;;;;;;;1.25;0.80;;;;;;;13.52;68.46;99148.09;5129574;27;20051;-84
2022/06/02 01:13:46;;;;;;;3.63;0.82;;;;;;;13.40;70.13;99142.41;5110969;28;20048;-84
2022/06/02 01:16:18;;;;;;;0.80;0.63;;;;;;;13.21;73.20;99139.34;5107204;28;20079;-84
2022/06/02 01:18:59;;;;;;;1.92;0.90;;;;;;;13.30;67.98;99153.66;5109391;28;20055;-85
2022/06/02 01:21:59;;;;;;;3.92;0.70;;;;;;;13.36;68.80;99150.16;5105260;28;20044;-84
2022/06/02 01:25:06;;;;;;;2.35;1.08;;;;;;;13.40;66.58;99154.16;5102110;28;20047;-84
2022/06/02 01:27:58;;;;;;;0.55;0.55;;;;;;;13.41;66.72;99165.91;5091461;28;20407;-84
2022/06/02 01:30:52;;;;;;;1.60;0.60;;;;;;;13.45;66.18;99165.31;5092390;28;20044;-84
2022/06/02 01:33:30;;;;;;;3.22;0.90;;;;;;;13.50;66.69;99174.78;5082689;28;20097;-84
2022/06/02 01:36:09;;;;;;;2.58;0.70;;;;;;;13.42;67.93;99160.25;5109575;28;20237;-84
2022/06/02 01:38:47;;;;;;;3.63;1.02;;;;;;;13.58;66.65;99160.97;5106302;28;20399;-83
2022/06/02 01:41:21;;;;;;;2.00;0.75;;;;;;;13.36;67.55;99152.03;5106181;28;20056;-83
2022/06/02 01:43:54;;;;;;;9.55;0.98;;;;;;;13.46;67.21;99152.50;5092267;28;20047;-84
2022/06/02 01:46:35;;;;;;;1.85;0.82;;;;;;;13.58;68.80;99171.88;5106066;28;20052;-84
2022/06/02 01:49:14;;;;;;;3.70;1.10;;;;;;;13.63;70.26;99177.56;5097889;28;20506;-84
2022/06/02 01:51:54;;;;;;;0.90;0.60;;;;;;;13.39;74.96;99173.47;5106660;28;20483;-84
2022/06/02 01:54:32;;;;;;;4.13;0.90;;;;;;;13.31;75.76;99165.41;5085227;28;20130;-84
2022/06/02 01:57:17;;;;;;;1.40;0.85;;;;;;;13.17;77.41;99167.22;5101916;28;20055;-84
2022/06/02 02:00:04;;;;;;;2.53;0.85;;;;;;;13.18;77.96;99188.03;5102248;28;20051;-84
2022/06/02 02:02:41;;;;;;;1.77;0.80;;;;;;;12.88;78.15;99180.91;5107586;28;20039;-84
2022/06/02 02:05:29;;;;;;;1.83;0.93;;;;;;;12.91;77.67;99188.69;5100031;28;20055;-84
2022/06/02 02:08:19;;;;;;;0.70;0.65;;;;;;;12.86;77.81;99188.47;5102440;28;20040;-84
2022/06/02 02:10:58;;;;;;;2.08;1.00;;;;;;;12.79;78.91;99186.72;5098062;28;20047;-84
2022/06/02 02:13:48;;;;;;;0.98;0.65;;;;;;;12.71;78.74;99195.91;5099059;28;20502;-84
2022/06/02 02:16:24;;;;;;;0.70;0.70;;;;;;;12.49;79.93;99186.91;5108248;28;20109;-84
2022/06/02 02:19:09;;;;;;;3.92;1.00;;;;;;;12.34;80.76;99196.00;5091969;28;20044;-84
2022/06/02 02:21:47;;;;;;;1.52;0.80;;;;;;;12.43;79.87;99193.16;5101292;28;20051;-84
2022/06/02 02:24:28;;;;;;;3.92;1.00;;;;;;;12.58;80.03;99199.38;5109012;28;20055;-84
2022/06/02 02:27:01;;;;;;;1.40;0.93;;;;;;;12.43;81.11;99187.72;5110977;28;20515;-84
2022/06/02 02:29:37;;;;;;;1.98;0.98;;;;;;;12.49;81.55;99198.66;5110693;28;20503;-84
2022/06/02 02:32:08;;;;;;;2.45;0.73;;;;;;;12.41;82.21;99200.72;5102964;28;20051;-84
2022/06/02 02:34:49;;;;;;;1.05;0.80;;;;;;;12.47;82.28;99211.66;5101218;28;20047;-84
2022/06/02 02:37:25;;;;;;;1.08;0.90;;;;;;;12.46;83.17;99212.69;5084768;28;20134;-84
2022/06/02 02:40:00;;;;;;;2.10;1.00;;;;;;;12.45;83.13;99207.44;5103063;28;20055;-84
2022/06/02 02:42:34;;;;;;;2.00;1.00;;;;;;;12.38;83.25;99208.22;5108922;28;20394;-84
2022/06/02 02:45:10;;;;;;;4.10;0.80;;;;;;;12.19;84.26;99193.38;5105712;28;20047;-84
2022/06/02 02:47:48;;;;;;;1.40;1.08;;;;;;;12.30;83.95;99197.47;5098350;28;20063;-84
2022/06/02 02:50:25;;;;;;;2.50;0.90;;;;;;;12.37;85.54;99203.81;5108929;28;20054;-84
2022/06/02 02:52:57;;;;;;;2.88;1.10;;;;;;;12.15;86.41;99197.53;5110623;28;20052;-84
2022/06/02 02:55:29;;;;;;;2.88;1.42;;;;;;;12.21;86.38;99191.28;5099761;28;21589;-84
2022/06/02 02:58:02;;;;;;;1.80;1.08;;;;;;;12.20;84.92;99191.47;5109476;28;20042;-83
2022/06/02 03:00:34;;;;;;;1.05;0.82;;;;;;;12.15;83.55;99188.47;5100604;28;20044;-84
2022/06/02 03:03:09;;;;;;;4.03;1.20;;;;;;;12.36;85.12;99191.22;5086315;28;20079;-84
2022/06/02 03:05:53;;;;;;;1.40;0.90;;;;;;;12.33;85.90;99194.34;5097128;28;20052;-83
2022/06/02 03:08:35;;;;;;;2.53;1.08;;;;;;;12.19;86.77;99197.97;5102566;28;20076;-84
2022/06/02 03:11:18;;;;;;;1.05;0.95;;;;;;;12.18;88.02;99207.19;5106904;28;20051;-85
2022/06/02 03:13:59;;;;;;;3.05;1.15;;;;;;;12.16;86.89;99193.78;5107760;28;20048;-84
2022/06/02 03:16:27;;;;;;;1.33;0.95;;;;;;;12.28;87.49;99199.50;5102155;28;20483;-84
2022/06/02 03:19:05;;;;;;;4.40;1.02;;;;;;;12.16;87.36;99195.63;5113531;28;20048;-84
2022/06/02 03:21:37;;;;;;;1.23;0.80;;;;;;;12.18;87.76;99208.03;5092862;28;20048;-84
2022/06/02 03:24:31;;;;;;;5.20;1.08;;;;;;;12.21;85.14;99220.44;5095852;28;20101;-84
2022/06/02 03:27:11;;;;;;;1.48;1.08;;;;;;;12.20;84.47;99229.66;5108952;28;20043;-84
2022/06/02 03:29:51;;;;;;;1.50;1.15;;;;;;;12.06;88.33;99209.59;5112093;28;20482;-84
2022/06/02 03:32:31;;;;;;;1.45;1.10;;;;;;;12.09;89.60;99209.19;5111904;28;20055;-84
2022/06/02 03:35:04;;;;;;;3.53;1.15;;;;;;;11.86;89.72;99201.16;5103440;28;20130;-84
2022/06/02 03:37:44;;;;;;;5.85;1.15;;;;;;;11.87;89.91;99213.75;5108149;28;20044;-83
2022/06/02 03:40:25;;;;;;;1.20;1.00;;;;;;;11.98;87.37;99218.72;5111892;28;20047;-84
2022/06/02 03:42:58;;;;;;;2.15;1.20;;;;;;;12.04;86.96;99220.69;5111773;28;20873;-84
2022/06/02 03:45:54;;;;;;;1.35;1.10;;;;;;;12.01;85.73;99229.25;5102358;28;20495;-84
2022/06/02 03:48:58;;;;;;;2.40;1.23;;;;;;;11.96;84.92;99223.50;5094662;28;20065;-85
2022/06/02 03:51:36;;;;;;;1.65;1.00;;;;;;;11.87;86.53;99227.38;5106807;28;20134;-84
2022/06/02 03:54:26;;;;;;;3.25;1.10;;;;;;;11.87;86.44;99216.47;5110416;28;20051;-85
2022/06/02 03:57:08;;;;;;;4.80;1.30;;;;;;;12.04;86.56;99228.00;5104535;28;20053;-85
2022/06/02 03:59:55;;;;;;;2.75;1.10;;;;;;;11.92;88.71;99232.22;5103138;28;20059;-85
2022/06/02 04:02:29;;;;;;;1.67;1.10;;;;;;;11.91;88.59;99236.84;5102677;28;20052;-85
2022/06/02 04:05:06;;;;;;;1.00;0.90;;;;;;;11.69;89.81;99214.16;5111810;28;20044;-85
2022/06/02 04:07:38;;;;;;;2.30;1.25;;;;;;;11.54;90.32;99195.13;5114133;28;20048;-85
2022/06/02 04:10:16;;;;;;;3.08;1.30;;;;;;;11.83;87.96;99229.63;5111816;28;20048;-85
2022/06/02 04:16:01;;;;;;;2.90;1.20;;;;;;;11.63;93.50;99232.09;5100414;28;20088;-84
2022/06/02 04:18:51;;;;;;;3.05;1.50;;;;;;;11.67;91.17;99232.56;5115461;28;20043;-84
2022/06/02 04:21:33;;;;;;;1.60;1.02;;;;;;;11.74;91.29;99247.09;5101281;28;20036;-85
2022/06/02 04:24:15;;;;;;;2.90;0.93;;;;;;;11.88;93.25;99245.41;5105233;28;20142;-84
2022/06/02 04:27:15;;;;;;;2.45;1.00;;;;;;;11.87;92.38;99243.72;5113866;28;20135;-84
2022/06/02 04:30:10;;;;;;;2.33;1.17;;;;;;;11.77;92.69;99244.03;5111437;28;20062;-84
2022/06/02 04:32:42;;;;;;;1.67;1.20;;;;;;;11.69;94.32;99250.41;5111598;28;20044;-85
2022/06/02 04:35:22;;;;;;;2.60;1.13;;;;;;;11.84;94.55;99272.16;5108837;28;20557;-85
2022/06/02 04:37:54;;;;;;;;;;;;;;;11.79;94.23;99266.47;5109449;28;20043;-84
2022/06/02 04:40:54;;;;;;;3.10;1.23;;;;;;;11.69;94.80;99235.94;5115656;28;19923;-84
2022/06/02 04:43:32;;;;;;;1.35;1.10;;;;;;;11.78;92.19;99256.59;5112341;28;20043;-84
2022/06/02 04:46:13;;;;;;;1.52;1.20;;;;;;;11.83;94.48;99245.97;5106977;28;20058;-84
2022/06/02 04:48:46;;;;;;;2.78;1.05;;;;;;;11.82;93.83;99230.66;5114204;28;20122;-84
2022/06/02 04:51:22;;;;;;;4.43;1.05;;;;;;;12.03;94.25;99229.06;5103622;28;20040;-84
2022/06/02 04:53:58;;;;;;;3.80;1.38;;;;;;;12.23;94.43;99251.06;5099365;28;20058;-84
2022/06/02 04:56:35;;;;;;;2.17;1.17;;;;;;;12.54;89.66;99256.19;5111816;28;20058;-85
2022/06/02 04:59:16;;;;;;;1.85;1.13;;;;;;;13.08;86.70;99242.97;5102364;28;20487;-85
2022/06/02 05:02:01;;;;;;;4.68;1.27;;;;;;;13.77;81.24;99250.31;5101877;28;20518;-85
2022/06/02 05:04:39;;;;;;;1.95;1.27;;;;;;;14.14;75.86;99242.69;5107627;28;20043;-84
2022/06/02 05:07:17;;;;;;;3.05;1.02;;;;;;;14.38;74.22;99229.50;5104316;28;20047;-85
2022/06/02 05:09:52;;;;;;;1.88;1.25;;;;;;;15.07;64.60;99248.47;5111537;28;20073;-85
2022/06/02 05:12:28;;;;;;;2.97;1.25;;;;;;;15.68;62.08;99260.97;5111496;28;20044;-84
2022/06/02 05:15:12;;;;;;;2.50;1.20;;;;;;;15.89;60.46;99236.03;5110704;28;20055;-84
2022/06/02 05:17:58;;;;;;;3.88;1.10;;;;;;;16.22;60.31;99247.91;5097924;28;20054;-84
2022/06/02 05:20:48;;;;;;;1.35;1.08;;;;;;;16.44;59.40;99264.88;5107819;28;20505;-85
2022/06/02 05:23:31;;;;;;;;;;;;;;;16.61;59.81;99263.28;5101247;28;20052;-85
2022/06/02 05:26:43;;;;;;;5.63;1.50;;;;;;;16.63;59.82;99274.03;5110426;28;19919;-85
2022/06/02 05:29:39;;;;;;;2.30;1.17;;;;;;;16.97;57.54;99255.44;5067531;28;20048;-85
2022/06/02 05:32:20;;;;;;;2.67;1.00;;;;;;;17.39;55.99;99276.78;5070146;28;20092;-85
2022/06/02 05:35:11;;;;;;;7.38;1.23;;;;;;;17.69;54.51;99279.69;5112633;28;20048;-85
2022/06/02 05:37:52;;;;;;;2.15;1.17;;;;;;;17.66;53.18;99272.72;5112756;28;20048;-82
2022/06/02 05:40:30;;;;;;;2.65;1.17;;;;;;;18.04;50.23;99270.81;5112474;28;20052;-82
2022/06/02 05:43:14;;;;;;;2.85;0.90;;;;;;;17.85;50.43;99280.94;5096377;28;20078;-82
2022/06/02 05:45:57;;;;;;;2.45;1.27;;;;;;;17.83;50.78;99296.84;5110982;28;20414;-83
2022/06/02 05:48:48;;;;;;;5.55;1.20;;;;;;;18.07;48.49;99288.78;5101285;28;20046;-85
2022/06/02 05:51:23;;;;;;;1.42;1.00;;;;;;;18.27;47.61;99294.84;5104121;28;20090;-83
2022/06/02 05:54:04;;;;;;;2.50;1.23;;;;;;;18.40;47.76;99289.16;5102024;28;20135;-83
2022/06/02 05:56:40;;;;;;;2.92;1.30;;;;;;;18.28;48.09;99266.25;5101352;28;20048;-83
2022/06/02 05:59:46;;;;;;;2.25;1.40;;;;;;;18.14;49.55;99284.88;5108600;28;20497;-83
2022/06/02 06:02:57;;;;;;;3.95;1.02;;;;;;;18.20;48.98;99296.84;5111568;28;20043;-84
2022/06/02 06:05:30;;;;;;;3.42;1.42;;;;;;;17.94;50.57;99267.78;5039485;28;20128;-84
2022/06/02 06:08:24;;;;;;;1.38;1.00;;;;;;;18.28;49.12;99277.28;5111105;28;20124;-83
2022/06/02 06:11:02;;;;;;;1.48;0.90;;;;;;;18.68;48.67;99290.47;5109332;28;20134;-84
2022/06/02 06:13:49;;;;;;;2.05;1.13;;;;;;;18.64;47.70;99289.25;5095291;28;20051;-84
2022/06/02 06:16:22;;;;;;;1.98;1.58;;;;;;;18.95;46.22;99289.25;5106587;28;20036;-84
2022/06/02 06:19:04;;;;;;;1.05;0.90;;;;;;;18.41;46.91;99290.00;5106443;28;20047;-84
2022/06/02 06:21:52;;;;;;;4.93;1.30;;;;;;;18.84;45.31;99279.84;5097360;28;20131;-83
2022/06/02 06:24:28;;;;;;;1.00;0.90;;;;;;;19.12;46.44;99294.88;5105976;28;20044;-83
2022/06/02 06:27:04;;;;;;;1.35;0.85;;;;;;;19.05;46.19;99262.78;5106573;28;20402;-83
2022/06/02 06:29:54;;;;;;;3.72;1.30;;;;;;;19.43;45.30;99280.75;5108645;28;20051;-83
2022/06/02 06:32:26;;;;;;;1.27;1.00;;;;;;;19.32;44.88;99300.91;5112991;28;20613;-83
2022/06/02 06:35:02;;;;;;;3.33;1.70;;;;;;;18.83;45.15;99295.50;5114150;28;20055;-83
2022/06/02 06:37:52;;;;;;;1.00;0.90;;;;;;;19.50;44.39;99286.16;5118490;27;20047;-83
2022/06/02 06:40:51;;;;;;;2.83;1.27;;;;;;;19.77;42.59;99275.50;5112836;28;20131;-84
2022/06/02 06:43:52;;;;;;;3.23;0.90;;;;;;;19.49;42.73;99284.47;5099804;28;20054;-84
2022/06/02 06:46:25;;;;;;;2.50;1.30;;;;;;;19.72;42.28;99300.19;5094593;28;20357;-85
2022/06/02 06:48:58;;;;;;;1.30;1.10;;;;;;;20.28;42.24;99294.22;5098083;28;20056;-84
2022/06/02 06:51:36;;;;;;;1.40;1.00;;;;;;;20.09;41.76;99283.31;5095952;28;20059;-84
2022/06/02 06:54:12;;;;;;;4.00;1.15;;;;;;;20.10;42.49;99287.78;5111697;28;20055;-85
2022/06/02 06:56:46;;;;;;;1.75;1.25;;;;;;;20.60;42.11;99305.59;5112306;28;20056;-85
2022/06/02 06:59:24;;;;;;;1.73;1.17;;;;;;;20.66;42.13;99290.81;5109989;28;21633;-85
2022/06/02 07:01:59;;;;;;;2.78;1.10;;;;;;;20.74;40.55;99280.44;5111637;28;20047;-85
2022/06/02 07:04:38;;;;;;;2.05;1.00;;;;;;;20.23;42.27;99294.09;5111811;28;20143;-83
2022/06/02 07:07:13;;;;;;;2.50;1.00;;;;;;;20.40;41.99;99302.41;5112355;28;20048;-84
2022/06/02 07:09:52;;;;;;;1.10;1.00;;;;;;;20.35;41.55;99283.84;5112190;28;20131;-85
2022/06/02 07:15:16;;;;;;;2.25;1.10;;;;;;;20.40;40.66;99269.28;5108476;28;20177;-84
2022/06/02 07:17:52;;;;;;;2.78;0.90;;;;;;;20.97;40.32;99283.06;5111662;28;20107;-85
2022/06/02 07:20:23;;;;;;;2.25;1.02;;;;;;;21.39;39.59;99304.75;5111598;28;20096;-85
2022/06/02 07:22:58;;;;;;;1.48;0.93;;;;;;;20.79;41.29;99297.97;5111422;28;20048;-84
2022/06/02 07:25:30;;;;;;;1.77;0.90;;;;;;;20.30;40.53;99309.41;5111679;28;20063;-80
2022/06/02 07:28:03;;;;;;;1.33;0.90;;;;;;;20.72;40.43;99288.16;5107768;28;20062;-85
2022/06/02 07:30:50;;;;;;;1.75;1.10;;;;;;;20.93;39.74;99287.41;5110530;28;20060;-85
2022/06/02 07:33:52;;;;;;;2.08;0.95;;;;;;;21.20;39.21;99287.59;5110553;28;20050;-84
2022/06/02 07:36:40;;;;;;;2.22;1.48;;;;;;;20.76;41.24;99290.19;5111934;28;20052;-85
2022/06/02 07:39:29;;;;;;;4.38;1.02;;;;;;;20.94;39.60;99277.19;5095242;28;20051;-86
2022/06/02 07:42:11;;;;;;;4.07;1.30;;;;;;;20.92;40.22;99274.69;5097958;28;20048;-85
2022/06/02 07:45:22;;;;;;;1.55;0.98;;;;;;;20.74;41.58;99288.72;5103225;28;20116;-86
2022/06/02 07:48:03;;;;;;;2.03;1.00;;;;;;;20.52;40.56;99293.00;5109824;28;20055;-85
2022/06/02 07:50:32;;;;;;;4.75;1.15;;;;;;;20.41;40.54;99284.78;5104915;28;20044;-85
2022/06/02 07:53:12;;;;;;;3.45;1.02;;;;;;;20.16;41.72;99300.59;5111335;28;20055;-84
2022/06/02 07:55:50;;;;;;;3.03;0.98;;;;;;;20.51;41.16;99288.56;5111648;28;20050;-85
2022/06/02 07:58:30;;;;;;;2.58;0.95;;;;;;;20.80;41.22;99290.50;5112281;28;20479;-86
2022/06/02 08:01:05;;;;;;;1.10;0.73;;;;;;;21.00;39.54;99290.88;5110687;28;20047;-85
2022/06/02 08:03:48;;;;;;;1.25;0.95;;;;;;;20.90;39.13;99290.69;5109547;28;20070;-87
2022/06/02 08:06:26;;;;;;;3.17;1.02;;;;;;;20.37;39.99;99292.72;5111395;28;20047;-84
2022/06/02 08:09:17;;;;;;;6.80;1.38;;;;;;;20.93;40.45;99286.59;5111565;28;20055;-85
2022/06/02 08:11:54;;;;;;;2.13;0.98;;;;;;;20.97;39.71;99283.06;5112364;28;20044;-85
2022/06/02 08:14:31;;;;;;;2.45;1.00;;;;;;;20.78;40.55;99293.50;5111416;28;20089;-85
2022/06/02 08:17:01;;;;;;;2.05;1.00;;;;;;;21.47;39.07;99294.34;5105383;28;20440;-85
2022/06/02 08:19:51;;;;;;;0.70;0.68;;;;;;;21.54;38.66;99293.13;5111220;28;20071;-85
2022/06/02 08:22:24;;;;;;;;;;;;;;;20.96;36.56;99294.38;5111174;28;20055;-84
2022/06/02 08:25:03;;;;;;;3.97;1.02;;;;;;;21.04;38.31;99280.13;5110833;28;20010;-85
2022/06/02 08:27:54;;;;;;;1.65;1.00;;;;;;;21.12;37.34;99288.03;5108791;28;20138;-85
2022/06/02 08:30:29;;;;;;;2.10;0.95;;;;;;;21.33;37.90;99293.84;5100993;28;20052;-84
2022/06/02 08:33:18;;;;;;;0.70;0.70;;;;;;;21.72;38.88;99286.47;5107203;28;20519;-84
2022/06/02 08:35:52;;;;;;;3.87;1.00;;;;;;;21.46;40.21;99282.44;5114314;28;20043;-85
2022/06/02 08:38:41;;;;;;;1.98;0.80;;;;;;;21.31;38.04;99285.81;5115259;28;20110;-84
2022/06/02 08:41:46;;;;;;;4.43;0.93;;;;;;;21.51;39.03;99282.56;5114933;28;20510;-86
2022/06/02 08:44:48;;;;;;;2.42;1.02;;;;;;;21.40;40.10;99278.75;5114845;28;20082;-86
2022/06/02 08:47:47;;;;;;;1.35;0.70;;;;;;;21.78;37.94;99281.81;5106666;28;20063;-85
2022/06/02 08:50:46;;;;;;;3.10;1.00;;;;;;;21.37;37.91;99261.84;5094106;28;20043;-86
2022/06/02 08:53:54;;;;;;;1.27;0.70;;;;;;;21.48;37.34;99290.50;5114200;28;20094;-86
2022/06/02 08:56:52;;;;;;;3.30;1.20;;;;;;;21.33;37.23;99282.81;5114341;28;20053;-87
2022/06/02 08:59:54;;;;;;;0.80;0.80;;;;;;;20.91;38.29;99292.38;5115192;28;20054;-87
2022/06/02 09:02:55;;;;;;;3.17;0.93;;;;;;;20.52;37.45;99257.13;5111930;28;21106;-85
2022/06/02 09:05:45;;;;;;;1.45;0.80;;;;;;;20.87;37.12;99282.91;5109483;28;20052;-83
2022/06/02 09:08:29;;;;;;;;;;;;;;;21.27;36.88;99284.63;5114642;28;20059;-80
2022/06/02 09:11:16;;;;;;;7.45;0.80;;;;;;;21.66;36.45;99287.47;5115103;28;20006;-86
2022/06/02 09:14:25;;;;;;;4.90;0.80;;;;;;;21.77;35.23;99262.72;5114297;28;20134;-86
2022/06/02 09:16:59;;;;;;;1.00;0.80;;;;;;;21.99;36.63;99288.47;5093125;28;20051;-85
2022/06/02 09:19:47;;;;;;;1.63;0.65;;;;;;;21.96;35.60;99288.16;5107250;28;20139;-86
2022/06/02 09:22:34;;;;;;;1.42;0.70;;;;;;;22.18;35.62;99269.59;5112784;28;20040;-86
2022/06/02 09:25:16;;;;;;;0.55;0.55;;;;;;;22.15;34.68;99278.44;5114807;28;20079;-86
2022/06/02 09:28:23;;;;;;;0.68;0.50;;;;;;;22.38;37.36;99295.91;5113714;28;20051;-86
2022/06/02 09:31:06;;;;;;;1.60;0.93;;;;;;;22.28;35.32;99283.56;5063598;28;20061;-87
2022/06/02 09:33:56;;;;;;;3.95;0.70;;;;;;;22.34;34.56;99289.19;5101461;28;20114;-88
2022/06/02 09:37:01;;;;;;;8.40;1.90;;;;;;;22.68;33.95;99291.78;5093971;28;20135;-88
2022/06/02 09:39:45;;;;;;;2.67;0.80;;;;;;;22.36;33.05;99298.94;5093922;28;20063;-87
2022/06/02 09:42:35;;;;;;;3.20;0.90;;;;;;;21.83;33.56;99265.31;5112172;28;20043;-87
2022/06/02 09:45:18;;;;;;;1.25;0.68;;;;;;;22.65;35.35;99278.47;5111217;28;20047;-88
2022/06/02 09:47:58;;;;;;;2.20;0.70;;;;;;;22.70;33.17;99281.28;5114223;28;20044;-88
2022/06/02 09:50:48;;;;;;;2.03;0.80;;;;;;;22.22;33.32;99284.63;5114284;28;20147;-87
2022/06/02 09:53:59;;;;;;;1.92;0.70;;;;;;;22.15;34.56;99295.03;5099981;28;20047;-80
2022/06/02 09:56:52;;;;;;;5.20;0.80;;;;;;;22.39;33.83;99284.56;5110618;28;20051;-83
2022/06/02 09:59:30;;;;;;;0.70;0.70;;;;;;;22.66;33.04;99286.50;5113516;28;20058;-84
2022/06/02 10:02:13;;;;;;;1.40;0.73;;;;;;;23.05;34.56;99275.22;5113543;28;20553;-85
2022/06/02 10:05:07;;;;;;;2.33;0.50;;;;;;;22.94;33.06;99266.00;5113672;28;20050;-85
2022/06/02 10:07:45;;;;;;;3.75;0.88;;;;;;;22.71;33.21;99280.19;5104807;28;20083;-84
2022/06/02 10:10:28;;;;;;;4.50;0.70;;;;;;;22.28;34.54;99255.88;5112558;28;20410;-83
2022/06/02 10:13:22;;;;;;;0.75;0.60;;;;;;;22.56;35.02;99276.16;5112845;28;20051;-84
2022/06/02 10:16:06;;;;;;;1.05;0.70;;;;;;;22.81;35.23;99249.78;5113124;28;20058;-85
2022/06/02 10:18:56;;;;;;;2.08;0.55;;;;;;;23.05;33.04;99261.38;5092713;28;20052;-84
2022/06/02 10:21:33;;;;;;;1.40;0.60;;;;;;;22.78;33.54;99244.78;5093452;28;20455;-84
2022/06/02 10:24:35;;;;;;;5.35;0.90;;;;;;;22.54;33.53;99269.22;5102649;28;20047;-84
2022/06/02 10:27:20;;;;;;;1.02;0.90;;;;;;;23.21;34.37;99262.34;5110451;28;20048;-87
2022/06/02 10:30:40;;;;;;;0.90;0.77;;;;;;;23.30;32.59;99257.13;5113456;28;20054;-86
2022/06/02 10:33:39;;;;;;;1.77;0.82;;;;;;;23.57;33.06;99240.38;5109558;28;20048;-86
2022/06/02 10:36:42;;;;;;;2.45;0.68;;;;;;;23.90;33.70;99257.78;5112972;28;20402;-86
2022/06/02 10:39:41;;;;;;;2.10;0.88;;;;;;;23.76;32.35;99249.09;5112724;28;20086;-85
2022/06/02 10:42:24;;;;;;;7.07;0.90;;;;;;;23.84;33.40;99261.63;5100535;28;20160;-87
2022/06/02 10:45:17;;;;;;;1.75;0.90;;;;;;;23.78;33.59;99257.97;5112372;28;20474;-87
2022/06/02 10:48:13;;;;;;;0.50;0.50;;;;;;;24.01;32.25;99242.84;5107615;28;20047;-87
2022/06/02 10:51:02;;;;;;;1.35;0.80;;;;;;;24.11;32.48;99255.94;5107219;28;20101;-87
2022/06/02 10:54:01;;;;;;;3.70;0.80;;;;;;;24.26;32.30;99224.59;5112150;28;20432;-86
2022/06/02 10:56:51;;;;;;;2.22;0.73;;;;;;;24.42;31.63;99246.84;5112809;28;20067;-84
2022/06/02 10:59:58;;;;;;;1.27;0.63;;;;;;;24.35;32.83;99252.69;5106025;28;20487;-87
2022/06/02 11:03:13;;;;;;;4.53;0.70;;;;;;;24.31;31.70;99249.59;5077199;28;20052;-85
2022/06/02 11:06:13;;;;;;;4.20;1.20;;;;;;;24.39;31.52;99243.53;5108743;28;20051;-88
2022/06/02 11:08:57;;;;;;;;;;;;;;;23.92;31.95;99244.50;5113553;28;20070;-85
2022/06/02 11:12:13;;;;;;;5.25;0.73;;;;;;;24.70;32.21;99224.13;5111917;28;19927;-87
2022/06/02 11:15:04;;;;;;;0.50;0.50;;;;;;;24.43;31.57;99234.63;5043419;28;20084;-87
2022/06/02 11:17:51;;;;;;;1.35;0.70;;;;;;;24.13;33.99;99217.63;5103751;28;20078;-87
2022/06/02 11:20:43;;;;;;;2.00;0.68;;;;;;;24.16;33.14;99230.97;5111206;28;20051;-86
2022/06/02 11:23:45;;;;;;;3.53;0.80;;;;;;;23.46;34.42;99228.38;5110941;28;20052;-84
2022/06/02 11:26:56;;;;;;;2.97;0.70;;;;;;;23.73;33.83;99221.88;5107486;28;20055;-81
2022/06/02 11:29:59;;;;;;;3.33;0.75;;;;;;;24.40;33.37;99211.00;5105937;28;20158;-83
2022/06/02 11:32:51;;;;;;;1.67;0.90;;;;;;;24.44;33.49;99220.47;5090531;28;20526;-83
2022/06/02 11:35:58;;;;;;;1.48;0.70;;;;;;;24.36;33.77;99218.25;5091256;28;20055;-84
2022/06/02 11:38:58;;;;;;;0.95;0.90;;;;;;;24.21;33.44;99216.25;5090943;28;20050;-80
2022/06/02 11:41:38;;;;;;;;;;;;;;;24.32;34.58;99211.56;5095264;28;20524;-84
2022/06/02 11:44:10;;;;;;;1.20;0.63;;;;;;;24.76;32.16;99182.44;5092857;28;19927;-84
2022/06/02 11:47:21;;;;;;;1.17;0.60;;;;;;;25.08;30.86;99196.03;5091130;28;20052;-84
2022/06/02 11:50:18;;;;;;;3.53;1.00;;;;;;;25.46;31.95;99176.22;5048856;28;20147;-84
2022/06/02 11:53:23;;;;;;;4.30;0.63;;;;;;;25.83;30.78;99170.25;5089451;28;20082;-86
2022/06/02 11:55:55;;;;;;;1.42;0.70;;;;;;;26.09;31.91;99181.28;5050435;28;20066;-84
2022/06/02 11:59:05;;;;;;;1.50;0.90;;;;;;;25.60;31.72;99200.41;5107233;28;20055;-83
2022/06/02 12:01:48;;;;;;;0.77;0.70;;;;;;;24.76;32.47;99182.44;5091190;28;20135;-84
2022/06/02 12:04:57;;;;;;;1.63;0.60;;;;;;;24.42;33.71;99177.38;5093364;28;20101;-87
2022/06/02 12:08:09;;;;;;;1.48;0.60;;;;;;;24.82;35.65;99173.81;5116491;28;20505;-88
2022/06/02 12:10:54;;;;;;;1.05;0.65;;;;;;;24.83;34.34;99174.66;5110643;28;20058;-81
2022/06/02 12:13:40;;;;;;;0.85;0.80;;;;;;;24.87;32.80;99184.94;5110503;28;20050;-84
2022/06/02 12:16:34;;;;;;;2.85;0.80;;;;;;;24.95;32.95;99193.84;5116330;28;20044;-88
2022/06/02 12:19:20;;;;;;;1.83;0.60;;;;;;;25.08;32.76;99163.53;5113995;28;20130;-89
2022/06/02 12:22:00;;;;;;;2.47;0.70;;;;;;;24.95;32.15;99166.03;5115294;28;20130;-83
2022/06/02 12:24:57;;;;;;;2.25;0.60;;;;;;;25.50;31.75;99191.25;5116174;28;20058;-88
2022/06/02 12:27:49;;;;;;;3.40;0.60;;;;;;;25.76;32.57;99190.06;5109680;28;20048;-87
2022/06/02 12:30:44;;;;;;;4.72;0.75;;;;;;;25.30;33.34;99190.19;5095249;28;20070;-84
2022/06/02 12:33:26;;;;;;;2.50;0.60;;;;;;;25.12;33.35;99182.41;5091910;28;20058;-79
2022/06/02 12:36:22;;;;;;;1.15;0.60;;;;;;;25.27;32.48;99185.16;5094311;28;20050;-85
2022/06/02 12:39:12;;;;;;;3.25;0.70;;;;;;;25.31;32.69;99161.28;5067899;28;20499;-84
2022/06/02 12:41:53;;;;;;;1.17;0.60;;;;;;;24.84;32.88;99173.53;5102470;28;20054;-83
2022/06/02 12:44:55;;;;;;;9.50;1.00;;;;;;;25.39;33.45;99152.31;5105223;28;20116;-83
2022/06/02 12:47:43;;;;;;;0.60;0.60;;;;;;;25.13;33.33;99171.00;5117504;28;20080;-83
2022/06/02 12:50:27;;;;;;;1.98;0.88;;;;;;;24.90;33.46;99176.06;5110881;28;20143;-83
2022/06/02 12:53:15;;;;;;;1.02;0.70;;;;;;;25.01;33.38;99159.38;5120639;28;20079;-87
2022/06/02 12:56:04;;;;;;;1.55;0.82;;;;;;;25.07;31.28;99170.19;5138908;28;20054;-85
2022/06/02 12:59:03;;;;;;;2.28;0.98;;;;;;;25.03;32.21;99179.38;5138822;28;20066;-88
2022/06/02 13:02:05;;;;;;;2.15;1.00;;;;;;;25.35;31.83;99176.28;5118684;28;20074;-89
2022/06/02 13:05:02;;;;;;;0.93;0.82;;;;;;;24.88;33.74;99178.25;5115144;28;20138;-88
2022/06/02 13:08:20;;;;;;;3.30;1.00;;;;;;;24.73;32.59;99181.91;5114320;28;20043;-86